Allegre, Kentucky
Current Conditions -  °F | °C
As of 4:43 AM on Monday 22 Dec 2014 (Local Time) from KHOP Reporting Station
Overcast Overcast  
Wind Chill:   Ceiling: 2800
Heat Index:   Visibility: 10mi
Dew Point:   Wind: 5mph
Humidity: 93%   Direction: 140°SE
Pressure: 29.92"   Gusts: NA
Location:  36.93°N, 87.22°W
Report Text: KHOP 221043Z AUTO 14004KT 10SM BKN028 OVC100 06/05 A2992 RMK AO2 CIG 028V100 BKN V FEW
Loading
Personal Weather Stations






























Interactive Weather Map New forecast layout! Learn more

10-Day Weather Forecast

Advertisements
Track Severe Weather on mobile